Jenner, California
Current Conditions -  °F | °C
As of 12:53 AM on Saturday 22 Nov 2014 (Local Time) from KSTS Reporting Station
Light Rain Light Rain  
Wind Chill: 56°   Ceiling: 600
Heat Index: 56°   Visibility: 2.5mi
Dew Point: 55°   Wind: 7mph
Humidity: 97%   Direction: 150°SSE
Pressure: 30.06"   Gusts: NA
Location:  38.45°N, 123.12°W
Report Text: KSTS 220853Z AUTO 15006KT 2 1/2SM -RA BR OVC006 13/13 A3006 RMK AO2 CIG 003V009 SLP172 P0000 60000 T01330128 58007
Loading
Personal Weather Stations






























Interactive Weather Map New forecast layout! Learn more

10-Day Weather Forecast

Advertisements
Track Severe Weather on mobile